Current Weather

Boscombe Down

Boscombe Down, United Kingdom (EGDM)

Report from: Monday, September 26, 2022 3:20 AM BST
Current time: Monday, September 26, 2022 3:49 AM BST

Nearby weather
Weather history
Weather forecast

Temperature11.0°C (51.8°F)
Dew point10.0°C (50.0°F)
Winds 14 kts (7.2 m/s, 16.1 mph) West-Southwest (240°)
Visibility6.2 mi. (10 km)
Clouds Scattered clouds 2,000 ft. (610 m)
Ceiling: Broken clouds 2,800 ft. (853 m)
Altimeter29.74 in.Hg (1007 mB)
Relative humidity94 %
Density altitude-91 ft. (-28 m)
Remarks Fully automated report
Flight conditions Marginal Visual Meteorological Conditions
Raw dataEGDM 260220Z AUTO 24014KT 9999 // SCT020/// BKN028/// 11/10 Q1007
An error has occurred. This application may no longer respond until reloaded. Reload 🗙